Time;durP1;ratioP1;P1;durP2;ratioP2;P2;SDS_P1;SDS_P2;PMS_P1;PMS_P2;Temp;Humidity;BMP_temperature;BMP_pressure;BME280_temperature;BME280_humidity;BME280_pressure;Samples;Min_cycle;Max_cycle;Signal;HPM_P1;HPM_P2
2022/11/02 00:00:16;;;;;;;0.60;0.00;;;21.90;49.60;;;;;;5089979;28;20522;-47
2022/11/02 00:02:43;;;;;;;0.68;0.35;;;22.00;49.60;;;;;;5089296;28;20044;-45
2022/11/02 00:05:12;;;;;;;0.68;0.10;;;21.90;49.60;;;;;;5089718;28;20047;-46
2022/11/02 00:07:41;;;;;;;1.52;0.20;;;21.90;49.70;;;;;;5089984;28;20598;-46
2022/11/02 00:10:09;;;;;;;3.50;0.30;;;21.90;49.70;;;;;;5089624;28;20059;-48
2022/11/02 00:12:36;;;;;;;1.17;0.10;;;21.90;49.70;;;;;;5089625;28;20047;-47
2022/11/02 00:15:04;;;;;;;0.30;0.10;;;21.90;49.70;;;;;;5089725;28;20039;-49
2022/11/02 00:17:32;;;;;;;1.63;0.10;;;21.90;49.70;;;;;;5089373;28;20072;-47
2022/11/02 00:19:59;;;;;;;3.47;0.40;;;21.90;49.70;;;;;;5082071;28;20040;-49
2022/11/02 00:22:27;;;;;;;0.95;0.15;;;21.90;49.70;;;;;;5069250;28;20068;-47
2022/11/02 00:24:56;;;;;;;0.40;0.00;;;21.90;49.80;;;;;;5069172;28;20036;-45
2022/11/02 00:27:23;;;;;;;2.00;0.10;;;21.90;49.80;;;;;;5068712;28;20576;-46
2022/11/02 00:29:50;;;;;;;0.80;0.10;;;21.90;49.80;;;;;;5068741;28;20036;-46
2022/11/02 00:32:18;;;;;;;3.97;0.10;;;21.90;49.80;;;;;;5068672;28;20125;-45
2022/11/02 00:34:45;;;;;;;1.95;0.17;;;21.90;49.80;;;;;;5067580;28;20040;-46
2022/11/02 00:37:12;;;;;;;0.73;0.22;;;21.80;49.80;;;;;;5068957;28;20067;-48
2022/11/02 00:39:39;;;;;;;1.52;0.13;;;21.80;49.80;;;;;;5067100;28;20114;-45
2022/11/02 00:42:08;;;;;;;1.48;0.68;;;21.90;49.80;;;;;;5065514;28;20033;-45
2022/11/02 00:44:35;;;;;;;1.27;0.00;;;21.80;49.80;;;;;;5049307;28;20143;-45
2022/11/02 00:47:02;;;;;;;1.25;0.00;;;21.80;49.80;;;;;;5067008;28;20566;-46
2022/11/02 00:49:29;;;;;;;0.80;0.10;;;21.80;49.80;;;;;;5067005;28;20068;-47
2022/11/02 00:51:57;;;;;;;2.03;0.17;;;21.80;49.80;;;;;;5067171;28;20039;-45
2022/11/02 00:54:24;;;;;;;3.67;0.10;;;21.80;49.80;;;;;;5067346;28;20143;-47
2022/11/02 00:56:54;;;;;;;2.28;0.80;;;21.80;49.80;;;;;;5067203;28;20098;-45
2022/11/02 00:59:22;;;;;;;0.73;0.10;;;21.80;49.80;;;;;;5067248;28;20064;-48
2022/11/02 01:01:49;;;;;;;1.15;0.10;;;21.80;49.80;;;;;;5068727;28;20049;-46
2022/11/02 01:04:17;;;;;;;1.98;0.10;;;21.80;49.80;;;;;;5067305;28;20044;-46
2022/11/02 01:06:46;;;;;;;1.77;0.30;;;21.80;49.90;;;;;;5067014;28;20048;-48
2022/11/02 01:09:15;;;;;;;1.10;0.10;;;21.80;49.90;;;;;;5066898;28;20044;-45
2022/11/02 01:11:42;;;;;;;1.45;0.10;;;21.80;49.90;;;;;;5068134;28;20127;-48
2022/11/02 01:14:10;;;;;;;0.20;0.10;;;21.80;49.80;;;;;;5066500;28;20581;-47
2022/11/02 01:16:40;;;;;;;1.27;0.10;;;21.70;49.80;;;;;;5068068;28;20149;-48
2022/11/02 01:19:07;;;;;;;1.13;0.10;;;21.70;49.80;;;;;;5067898;28;20033;-47
2022/11/02 01:21:34;;;;;;;3.53;0.52;;;21.70;49.80;;;;;;5046958;28;20053;-47
2022/11/02 01:24:02;;;;;;;1.98;0.20;;;21.70;49.80;;;;;;5046699;28;20063;-46
2022/11/02 01:26:32;;;;;;;2.97;0.20;;;21.70;49.80;;;;;;5046469;28;20080;-46
2022/11/02 01:28:59;;;;;;;1.52;0.10;;;21.70;49.80;;;;;;5047354;28;20041;-46
2022/11/02 01:31:26;;;;;;;3.20;0.47;;;21.70;49.80;;;;;;5050571;28;20041;-46
2022/11/02 01:33:54;;;;;;;1.00;0.10;;;21.70;49.80;;;;;;5047894;28;20604;-47
2022/11/02 01:36:21;;;;;;;3.42;0.28;;;21.70;49.80;;;;;;5047761;28;20123;-50
2022/11/02 01:38:51;;;;;;;4.13;0.17;;;21.70;49.70;;;;;;5047655;28;20064;-47
2022/11/02 01:41:18;;;;;;;0.40;0.00;;;21.70;49.70;;;;;;5047837;28;20083;-46
2022/11/02 01:43:46;;;;;;;1.95;0.10;;;21.70;49.80;;;;;;5046000;28;20056;-45
2022/11/02 01:46:18;;;;;;;3.30;0.52;;;21.60;49.70;;;;;;5046392;28;20638;-47
2022/11/02 01:48:50;;;;;;;4.18;0.25;;;21.70;49.80;;;;;;5073174;28;20048;-46
2022/11/02 01:51:23;;;;;;;1.17;0.35;;;21.60;49.70;;;;;;5069577;28;20145;-45
2022/11/02 01:53:52;;;;;;;1.20;0.10;;;21.60;49.70;;;;;;5067398;28;20127;-48
2022/11/02 01:56:22;;;;;;;4.15;0.10;;;21.60;49.80;;;;;;5067744;28;20635;-46
2022/11/02 01:59:04;;;;;;;4.50;1.13;;;21.60;49.80;;;;;;5065778;28;20080;-47
2022/11/02 02:01:33;;;;;;;3.30;0.20;;;21.60;49.70;;;;;;5066249;28;20048;-46
2022/11/02 02:04:02;;;;;;;2.35;0.20;;;21.60;49.80;;;;;;5066210;28;20416;-46
2022/11/02 02:06:34;;;;;;;0.70;0.10;;;21.60;49.80;;;;;;5066218;28;20044;-46
2022/11/02 02:09:06;;;;;;;2.67;0.10;;;21.60;49.80;;;;;;5066604;28;20036;-45
2022/11/02 02:11:34;;;;;;;3.15;0.20;;;21.60;49.80;;;;;;5067833;28;20152;-46
2022/11/02 02:14:05;;;;;;;1.75;0.10;;;21.50;49.70;;;;;;5066956;28;20037;-46
2022/11/02 02:16:54;;;;;;;3.63;0.50;;;21.60;49.80;;;;;;5066009;28;20145;-46
2022/11/02 02:19:35;;;;;;;1.15;0.25;;;21.60;49.80;;;;;;5061716;28;20049;-46
2022/11/02 02:22:20;;;;;;;2.50;0.10;;;21.60;49.90;;;;;;5065658;28;20047;-44
2022/11/02 02:24:56;;;;;;;1.17;0.10;;;21.50;49.80;;;;;;5065723;28;20558;-45
2022/11/02 02:27:29;;;;;;;3.05;0.82;;;21.50;49.90;;;;;;5066934;28;20580;-50
2022/11/02 02:30:05;;;;;;;3.60;0.10;;;21.50;49.90;;;;;;5065511;28;20119;-45
2022/11/02 02:32:44;;;;;;;1.17;0.10;;;21.50;49.90;;;;;;5065940;28;20570;-47
2022/11/02 02:35:18;;;;;;;2.55;0.30;;;21.50;49.90;;;;;;5065377;28;20072;-48
2022/11/02 02:37:51;;;;;;;1.90;0.25;;;21.50;49.90;;;;;;5065671;28;20045;-51
2022/11/02 02:40:22;;;;;;;2.75;0.22;;;21.50;49.90;;;;;;5065692;28;20181;-47
2022/11/02 02:42:54;;;;;;;1.25;0.10;;;21.50;49.90;;;;;;5065678;28;20044;-48
2022/11/02 02:45:29;;;;;;;4.22;0.10;;;21.40;49.80;;;;;;5066656;28;20047;-48
2022/11/02 02:48:02;;;;;;;4.35;0.38;;;21.40;49.80;;;;;;5065788;28;20424;-51
2022/11/02 02:50:34;;;;;;;0.77;0.10;;;21.50;49.90;;;;;;5069193;28;20215;-52
2022/11/02 02:53:06;;;;;;;2.40;0.43;;;21.40;49.80;;;;;;5071010;28;20516;-52
2022/11/02 02:55:39;;;;;;;3.30;0.60;;;21.50;49.90;;;;;;5068957;28;20063;-46
2022/11/02 02:58:13;;;;;;;1.83;0.35;;;21.50;49.90;;;;;;5069475;28;20056;-46
2022/11/02 03:00:42;;;;;;;2.47;0.10;;;21.50;49.90;;;;;;5070484;28;20045;-46
2022/11/02 03:03:15;;;;;;;1.27;0.30;;;21.40;49.80;;;;;;5054990;28;20048;-50
2022/11/02 03:05:42;;;;;;;3.33;0.20;;;21.40;49.80;;;;;;5050528;28;20087;-45
2022/11/02 03:08:15;;;;;;;1.70;0.20;;;21.40;49.80;;;;;;5049242;28;20106;-46
2022/11/02 03:10:47;;;;;;;1.80;0.10;;;21.40;49.80;;;;;;5049103;28;20099;-48
2022/11/02 03:13:32;;;;;;;1.95;0.10;;;21.40;49.80;;;;;;5049621;28;20509;-49
2022/11/02 03:16:06;;;;;;;2.85;0.25;;;21.40;49.80;;;;;;5050827;28;20053;-46
2022/11/02 03:18:41;;;;;;;0.95;0.10;;;21.40;49.80;;;;;;5050792;28;20052;-51
2022/11/02 03:21:20;;;;;;;1.92;0.10;;;21.40;49.80;;;;;;5066266;28;20053;-46
2022/11/02 03:23:52;;;;;;;5.28;0.10;;;21.40;49.80;;;;;;5069211;28;20097;-46
2022/11/02 03:26:24;;;;;;;1.90;0.10;;;21.40;49.80;;;;;;5069121;28;20137;-46
2022/11/02 03:29:01;;;;;;;1.33;0.20;;;21.40;49.80;;;;;;5068840;28;20048;-49
2022/11/02 03:31:36;;;;;;;4.50;0.75;;;21.40;49.80;;;;;;5069085;28;20072;-49
2022/11/02 03:34:13;;;;;;;0.40;0.10;;;21.40;49.80;;;;;;5069426;28;20132;-49
2022/11/02 03:36:46;;;;;;;0.95;0.10;;;21.30;49.80;;;;;;5070731;28;20512;-46
2022/11/02 03:39:18;;;;;;;3.20;0.20;;;21.30;50.50;;;;;;5068693;28;20037;-47
2022/11/02 03:41:48;;;;;;;1.52;0.13;;;21.30;49.90;;;;;;5052266;28;20044;-48
2022/11/02 03:44:20;;;;;;;4.65;1.08;;;21.30;49.90;;;;;;5069829;28;20044;-52
2022/11/02 03:46:53;;;;;;;2.22;0.45;;;21.30;49.90;;;;;;5069272;28;20045;-50
2022/11/02 03:49:23;;;;;;;4.95;0.22;;;21.30;49.90;;;;;;5069267;28;20472;-48
2022/11/02 03:51:51;;;;;;;6.60;0.75;;;21.30;49.90;;;;;;5070023;28;20092;-50
2022/11/02 03:54:29;;;;;;;3.40;0.30;;;21.30;49.80;;;;;;5068133;28;20041;-49
2022/11/02 03:56:59;;;;;;;1.95;0.40;;;21.30;49.90;;;;;;5051868;28;20110;-46
2022/11/02 03:59:31;;;;;;;4.57;0.45;;;21.30;49.80;;;;;;5048306;28;20136;-46
2022/11/02 04:02:01;;;;;;;2.35;0.30;;;21.30;49.80;;;;;;5047996;28;20662;-48
2022/11/02 04:04:29;;;;;;;1.40;0.10;;;21.30;49.80;;;;;;5048347;28;20045;-49
2022/11/02 04:06:56;;;;;;;5.45;0.90;;;21.20;49.70;;;;;;5048366;28;20567;-50
2022/11/02 04:09:24;;;;;;;2.80;0.30;;;21.30;49.80;;;;;;5048004;28;20068;-50
2022/11/02 04:14:39;;;;;;;2.17;0.17;;;21.20;49.70;;;;;;5049556;28;20041;-48
2022/11/02 04:20:07;;;;;;;7.10;0.30;;;21.20;49.70;;;;;;5056273;28;20102;-49
2022/11/02 04:25:20;;;;;;;7.88;0.47;;;21.20;49.70;;;;;;5067876;28;20032;-49
2022/11/02 04:28:07;;;;;;;4.40;0.30;;;21.20;49.70;;;;;;5069221;28;20045;-48
2022/11/02 04:30:36;;;;;;;3.35;0.40;;;21.20;49.70;;;;;;5068688;28;20127;-49
2022/11/02 04:36:00;;;;;;;3.42;0.82;;;21.20;49.70;;;;;;5067790;28;20053;-47
2022/11/02 04:38:39;;;;;;;4.72;0.20;;;21.10;49.70;;;;;;5067223;28;20131;-49
2022/11/02 04:43:54;;;;;;;2.45;0.45;;;21.10;49.70;;;;;;5060558;28;20395;-51
2022/11/02 04:46:22;;;;;;;3.25;0.10;;;21.10;49.70;;;;;;5047596;28;20040;-48
2022/11/02 04:48:51;;;;;;;6.38;0.73;;;21.10;49.70;;;;;;5059149;28;20055;-48
2022/11/02 04:51:21;;;;;;;1.80;0.30;;;21.10;49.70;;;;;;5068524;28;20526;-50
2022/11/02 04:53:48;;;;;;;4.03;0.10;;;21.10;50.30;;;;;;5067541;28;20513;-47
2022/11/02 04:56:16;;;;;;;2.22;0.32;;;21.10;49.70;;;;;;5067670;28;20051;-48
2022/11/02 04:58:44;;;;;;;2.40;0.35;;;21.10;49.80;;;;;;5066995;28;20048;-47
2022/11/02 05:01:14;;;;;;;2.15;0.20;;;21.10;49.70;;;;;;5067154;28;20123;-46
2022/11/02 05:03:43;;;;;;;3.17;0.85;;;21.10;49.70;;;;;;5067186;28;20420;-49
2022/11/02 05:06:12;;;;;;;3.92;0.30;;;21.10;49.70;;;;;;5066613;28;20051;-46
2022/11/02 05:08:40;;;;;;;7.13;0.38;;;21.10;49.60;;;;;;5067054;28;20052;-47
2022/11/02 05:11:08;;;;;;;6.15;0.30;;;21.10;49.60;;;;;;5050564;28;20124;-47
2022/11/02 05:13:36;;;;;;;4.18;0.30;;;21.10;49.60;;;;;;5067625;28;20043;-50
2022/11/02 05:16:03;;;;;;;0.68;0.10;;;21.10;49.60;;;;;;5066956;28;20049;-46
2022/11/02 05:18:31;;;;;;;5.63;1.30;;;21.10;49.60;;;;;;5068189;28;20067;-52
2022/11/02 05:21:01;;;;;;;4.55;0.65;;;21.10;49.60;;;;;;5066789;28;20061;-52
2022/11/02 05:23:31;;;;;;;4.53;0.55;;;21.10;49.60;;;;;;5067064;28;20056;-49
2022/11/02 05:26:01;;;;;;;4.70;0.43;;;21.00;49.50;;;;;;5066943;28;20041;-48
2022/11/02 05:28:31;;;;;;;4.05;0.93;;;21.00;49.50;;;;;;5066861;28;20115;-51
2022/11/02 05:30:59;;;;;;;11.02;0.63;;;21.00;50.10;;;;;;5066744;28;20066;-47
2022/11/02 05:33:28;;;;;;;3.53;0.95;;;21.00;49.50;;;;;;5063324;28;20095;-49
2022/11/02 05:35:55;;;;;;;4.97;1.13;;;21.00;49.50;;;;;;5046450;28;20045;-51
2022/11/02 05:38:23;;;;;;;3.67;0.30;;;21.00;49.50;;;;;;5046798;28;20052;-48
2022/11/02 05:40:56;;;;;;;2.75;0.20;;;21.00;49.50;;;;;;5046567;28;20055;-52
2022/11/02 05:43:25;;;;;;;3.08;0.20;;;21.00;49.50;;;;;;5046678;28;20056;-50
2022/11/02 05:45:53;;;;;;;4.70;0.10;;;21.00;49.50;;;;;;5046215;28;20425;-49
2022/11/02 05:48:21;;;;;;;4.72;0.55;;;21.00;49.60;;;;;;5055585;28;20242;-49
2022/11/02 05:50:48;;;;;;;5.88;0.20;;;21.00;49.60;;;;;;5067282;28;20166;-47
2022/11/02 05:53:15;;;;;;;4.07;0.30;;;21.00;49.50;;;;;;5068131;28;20040;-51
2022/11/02 05:55:42;;;;;;;3.90;0.35;;;21.00;49.60;;;;;;5069932;28;20048;-47
2022/11/02 05:58:11;;;;;;;3.67;0.43;;;21.00;49.60;;;;;;5067805;28;20559;-47
2022/11/02 06:00:39;;;;;;;7.93;0.52;;;21.00;49.60;;;;;;5067815;28;20552;-49
2022/11/02 06:03:06;;;;;;;6.18;0.22;;;20.90;49.60;;;;;;5066064;28;20513;-50
2022/11/02 06:05:34;;;;;;;4.70;0.25;;;20.90;49.60;;;;;;5067382;28;20500;-46
2022/11/02 06:08:01;;;;;;;1.13;0.17;;;20.90;49.60;;;;;;5066325;28;20638;-49
2022/11/02 06:10:30;;;;;;;4.35;0.50;;;20.90;49.60;;;;;;5066675;28;20705;-49
2022/11/02 06:12:58;;;;;;;3.47;0.60;;;20.90;49.60;;;;;;5067647;28;20068;-50
2022/11/02 06:15:27;;;;;;;4.75;0.57;;;20.90;49.60;;;;;;5067594;28;20135;-49
2022/11/02 06:17:54;;;;;;;4.78;0.20;;;20.90;49.60;;;;;;5067542;28;20089;-48
2022/11/02 06:20:22;;;;;;;6.72;0.77;;;20.90;49.60;;;;;;5067240;28;20429;-53
2022/11/02 06:22:50;;;;;;;8.55;0.40;;;20.90;49.60;;;;;;5049213;28;20127;-49
2022/11/02 06:25:18;;;;;;;3.67;0.57;;;20.90;49.60;;;;;;5050737;28;20048;-46
2022/11/02 06:27:52;;;;;;;4.63;0.52;;;20.90;49.60;;;;;;5051846;28;20072;-49
2022/11/02 06:30:20;;;;;;;5.55;0.45;;;20.90;49.60;;;;;;5050294;28;20053;-52
2022/11/02 06:32:50;;;;;;;2.80;0.40;;;20.90;49.60;;;;;;5051639;28;20055;-49
2022/11/02 06:35:17;;;;;;;7.20;0.30;;;20.90;49.60;;;;;;5051432;28;20091;-52
2022/11/02 06:37:45;;;;;;;3.30;1.25;;;20.90;49.60;;;;;;5051534;28;20098;-51
2022/11/02 06:40:13;;;;;;;4.03;0.30;;;20.90;49.60;;;;;;5066086;28;20051;-48
2022/11/02 06:42:41;;;;;;;3.78;0.35;;;20.90;49.60;;;;;;5071150;28;20048;-47
2022/11/02 06:45:08;;;;;;;4.63;0.20;;;20.90;49.70;;;;;;5071309;28;20851;-49
2022/11/02 06:47:37;;;;;;;2.72;0.68;;;20.90;49.70;;;;;;5070869;28;20591;-47
2022/11/02 06:50:06;;;;;;;3.20;0.30;;;20.90;49.80;;;;;;5070726;28;20500;-50
2022/11/02 06:52:34;;;;;;;6.32;0.50;;;20.90;49.80;;;;;;5071202;28;20116;-48
2022/11/02 06:55:01;;;;;;;3.38;0.77;;;20.90;49.80;;;;;;5069807;28;20431;-47
2022/11/02 06:57:28;;;;;;;5.85;0.30;;;20.90;49.90;;;;;;5070928;28;20047;-48
2022/11/02 06:59:55;;;;;;;3.33;0.43;;;20.90;49.90;;;;;;5070790;28;20115;-48
2022/11/02 07:02:22;;;;;;;5.80;0.20;;;20.90;49.90;;;;;;5070870;28;20059;-51
2022/11/02 07:04:49;;;;;;;3.40;0.20;;;20.90;49.80;;;;;;5070809;28;20052;-50
2022/11/02 07:07:17;;;;;;;3.63;0.88;;;20.90;49.90;;;;;;5070563;28;20041;-50
2022/11/02 07:09:44;;;;;;;3.78;0.73;;;20.90;49.90;;;;;;5067612;28;20070;-50
2022/11/02 07:12:11;;;;;;;4.90;0.38;;;20.90;49.90;;;;;;5050727;28;20517;-50
2022/11/02 07:14:38;;;;;;;3.10;0.20;;;20.90;49.90;;;;;;5050624;28;20075;-47
2022/11/02 07:17:05;;;;;;;7.63;0.65;;;20.90;49.90;;;;;;5032498;28;20048;-49
2022/11/02 07:19:32;;;;;;;7.72;0.30;;;20.90;49.90;;;;;;5053849;28;20135;-50
2022/11/02 07:21:59;;;;;;;2.92;0.45;;;20.90;49.80;;;;;;5070685;28;20136;-49
2022/11/02 07:24:28;;;;;;;4.55;0.88;;;21.00;49.90;;;;;;5070600;28;20047;-46
2022/11/02 07:26:55;;;;;;;2.88;0.63;;;21.00;49.90;;;;;;5070473;28;20044;-48
2022/11/02 07:29:22;;;;;;;1.60;0.20;;;21.00;49.90;;;;;;5070439;28;20513;-51
2022/11/02 07:31:49;;;;;;;1.95;0.43;;;21.00;49.80;;;;;;5070154;28;20036;-47
2022/11/02 07:34:16;;;;;;;3.33;0.40;;;21.00;49.80;;;;;;5070494;28;20119;-47
2022/11/02 07:36:43;;;;;;;5.20;1.35;;;21.00;49.80;;;;;;5069369;28;20040;-47
2022/11/02 07:39:10;;;;;;;6.85;0.28;;;21.00;49.70;;;;;;5070264;28;20739;-46
2022/11/02 07:41:38;;;;;;;1.90;0.60;;;21.00;49.70;;;;;;5069930;28;20040;-46
2022/11/02 07:44:05;;;;;;;4.07;0.28;;;21.00;50.20;;;;;;5070248;28;20083;-46
2022/11/02 07:46:33;;;;;;;1.02;0.70;;;21.00;49.60;;;;;;5068669;28;20424;-51
2022/11/02 07:49:00;;;;;;;9.05;0.52;;;21.00;49.60;;;;;;5083244;28;20127;-47
2022/11/02 07:51:27;;;;;;;3.15;0.57;;;21.00;49.60;;;;;;5070454;28;20060;-50
2022/11/02 07:53:54;;;;;;;3.55;0.28;;;21.00;49.50;;;;;;5070240;28;20581;-47
2022/11/02 07:56:21;;;;;;;5.57;0.50;;;21.00;49.50;;;;;;5070397;28;20059;-46
2022/11/02 07:58:49;;;;;;;4.07;0.82;;;21.00;49.40;;;;;;5058911;28;20136;-46
2022/11/02 08:01:16;;;;;;;5.20;0.90;;;21.00;49.30;;;;;;5049869;28;20041;-45
2022/11/02 08:03:43;;;;;;;3.70;1.00;;;21.00;49.30;;;;;;5049963;28;20045;-47
2022/11/02 08:06:10;;;;;;;8.98;1.33;;;21.00;49.30;;;;;;5048906;28;20041;-47
2022/11/02 08:08:37;;;;;;;9.00;0.90;;;21.00;49.40;;;;;;5051301;28;20125;-52
2022/11/02 08:11:06;;;;;;;6.57;1.15;;;21.00;50.40;;;;;;5064187;28;20044;-64
2022/11/02 08:13:34;;;;;;;7.18;1.65;;;21.10;51.40;;;;;;5064019;28;20110;-62
2022/11/02 08:16:02;;;;;;;4.80;0.68;;;21.20;51.60;;;;;;5065548;28;20032;-58
2022/11/02 08:18:31;;;;;;;4.20;0.85;;;21.40;51.50;;;;;;5069332;28;20044;-57
2022/11/02 08:20:59;;;;;;;3.50;0.40;;;21.60;51.50;;;;;;5069532;28;20032;-52
2022/11/02 08:23:27;;;;;;;4.22;0.30;;;21.80;51.40;;;;;;5069203;28;20576;-58
2022/11/02 08:25:55;;;;;;;6.88;0.75;;;22.00;51.20;;;;;;5054093;28;20056;-58
2022/11/02 08:28:24;;;;;;;6.80;0.45;;;22.20;51.00;;;;;;5069131;28;20040;-59
2022/11/02 08:30:51;;;;;;;8.43;0.30;;;22.30;51.20;;;;;;5068604;28;20040;-59
2022/11/02 08:33:20;;;;;;;5.47;0.35;;;22.50;50.70;;;;;;5069032;28;20072;-62
2022/11/02 08:35:49;;;;;;;5.25;1.55;;;22.60;51.00;;;;;;5069274;28;20574;-76
2022/11/02 08:38:21;;;;;;;7.97;1.02;;;22.70;50.80;;;;;;5076139;28;20127;-77
2022/11/02 08:40:48;;;;;;;2.90;0.25;;;22.90;50.80;;;;;;5071839;28;20052;-61
2022/11/02 08:43:16;;;;;;;4.55;0.25;;;23.00;50.20;;;;;;5060709;28;20117;-62
2022/11/02 08:45:45;;;;;;;2.92;0.80;;;23.10;50.00;;;;;;5068230;28;20168;-65
2022/11/02 08:48:12;;;;;;;6.60;0.43;;;23.30;49.70;;;;;;5060412;28;20043;-63
2022/11/02 08:50:41;;;;;;;6.38;0.90;;;23.40;49.50;;;;;;5068577;28;20044;-62
2022/11/02 08:53:08;;;;;;;3.45;0.40;;;23.50;49.30;;;;;;5068912;28;20040;-57
2022/11/02 08:55:35;;;;;;;2.53;0.10;;;23.60;49.10;;;;;;5068736;28;20053;-59
2022/11/02 08:58:03;;;;;;;3.70;0.38;;;23.60;49.00;;;;;;5068315;28;20040;-60
2022/11/02 09:00:32;;;;;;;4.75;0.57;;;23.70;48.70;;;;;;5068704;28;20048;-62
2022/11/02 09:03:01;;;;;;;4.85;0.47;;;23.80;48.70;;;;;;5068722;28;20054;-61
2022/11/02 09:05:30;;;;;;;2.25;0.10;;;23.90;48.50;;;;;;5068312;28;20114;-62
2022/11/02 09:08:00;;;;;;;3.88;0.60;;;24.00;48.20;;;;;;5054633;28;20045;-58
2022/11/02 09:10:29;;;;;;;8.65;0.40;;;24.10;48.00;;;;;;5052683;28;20082;-58
2022/11/02 09:12:58;;;;;;;5.78;0.85;;;24.10;47.70;;;;;;5066806;28;20044;-52
2022/11/02 09:15:25;;;;;;;5.28;0.40;;;24.10;47.40;;;;;;5066822;28;20045;-60
2022/11/02 09:17:52;;;;;;;4.82;0.43;;;24.20;47.50;;;;;;5064529;28;20398;-57
2022/11/02 09:20:20;;;;;;;1.33;0.35;;;24.20;47.30;;;;;;5068170;28;20471;-49
2022/11/02 09:22:47;;;;;;;1.70;0.22;;;24.30;47.20;;;;;;5068150;28;20059;-54
2022/11/02 09:25:17;;;;;;;3.78;0.43;;;24.30;47.50;;;;;;5068041;28;20052;-49
2022/11/02 09:27:44;;;;;;;5.30;0.63;;;24.40;47.20;;;;;;5068065;28;20071;-52
2022/11/02 09:30:12;;;;;;;7.53;0.57;;;24.40;47.00;;;;;;5066721;28;20528;-52
2022/11/02 09:32:40;;;;;;;4.18;0.63;;;24.50;46.90;;;;;;5068155;28;20071;-54
2022/11/02 09:35:09;;;;;;;7.68;1.25;;;24.50;46.90;;;;;;5067879;28;20044;-51
2022/11/02 09:37:36;;;;;;;2.30;0.20;;;24.50;46.60;;;;;;5067615;28;20412;-48
2022/11/02 09:40:04;;;;;;;7.38;1.15;;;24.50;46.60;;;;;;5069879;28;20127;-51
2022/11/02 09:42:40;;;;;;;3.13;0.45;;;24.50;46.50;;;;;;5067740;28;20063;-51
2022/11/02 09:45:13;;;;;;;3.10;0.50;;;24.50;46.50;;;;;;5053235;28;20409;-46
2022/11/02 09:47:44;;;;;;;4.88;0.30;;;24.50;46.50;;;;;;5057259;28;20037;-50
2022/11/02 09:50:16;;;;;;;4.60;0.45;;;24.50;46.40;;;;;;5059272;28;20199;-50
2022/11/02 09:52:49;;;;;;;2.45;0.10;;;24.50;46.40;;;;;;5065695;28;20571;-48
2022/11/02 09:55:23;;;;;;;4.95;1.02;;;24.50;46.30;;;;;;5064243;28;20040;-49
2022/11/02 09:57:59;;;;;;;3.88;0.35;;;24.50;46.30;;;;;;5067510;28;20040;-51
2022/11/02 10:00:30;;;;;;;4.75;1.27;;;24.50;46.10;;;;;;5067190;28;20040;-53
2022/11/02 10:03:03;;;;;;;2.25;0.47;;;24.50;45.90;;;;;;5059120;28;20051;-47
2022/11/02 10:05:39;;;;;;;4.93;0.73;;;24.50;46.00;;;;;;5053129;28;20044;-57
2022/11/02 10:08:18;;;;;;;4.22;0.43;;;24.50;45.90;;;;;;5056413;28;20145;-52
2022/11/02 10:10:53;;;;;;;4.20;0.30;;;24.50;46.00;;;;;;5064032;28;20072;-55
2022/11/02 10:13:32;;;;;;;3.75;0.80;;;24.40;46.10;;;;;;5066219;28;20133;-57
2022/11/02 10:16:05;;;;;;;7.70;0.40;;;24.50;45.90;;;;;;5067214;28;20127;-54
2022/11/02 10:18:35;;;;;;;3.72;1.05;;;24.40;46.20;;;;;;5067564;28;20068;-52
2022/11/02 10:21:07;;;;;;;4.68;0.25;;;24.40;46.30;;;;;;5068082;28;20047;-52
2022/11/02 10:23:37;;;;;;;10.27;0.40;;;24.40;46.40;;;;;;5064667;28;20098;-53
2022/11/02 10:26:05;;;;;;;2.47;0.35;;;24.30;46.40;;;;;;5047027;28;20048;-58
2022/11/02 10:28:36;;;;;;;5.30;1.42;;;24.30;46.10;;;;;;5063897;28;20098;-55
2022/11/02 10:31:04;;;;;;;8.65;0.50;;;24.30;46.40;;;;;;5066300;28;20048;-55
2022/11/02 10:33:31;;;;;;;4.68;0.20;;;24.40;46.50;;;;;;5068691;28;20037;-54
2022/11/02 10:36:15;;;;;;;4.40;0.28;;;24.40;46.80;;;;;;5067585;28;20048;-54
2022/11/02 10:38:54;;;;;;;5.40;0.70;;;24.50;46.70;;;;;;5068262;28;20120;-53
2022/11/02 10:41:39;;;;;;;5.30;0.40;;;24.50;46.80;;;;;;5069997;28;20086;-53
2022/11/02 10:44:28;;;;;;;8.30;0.20;;;24.50;46.30;;;;;;5078785;28;20118;-54
2022/11/02 10:47:06;;;;;;;4.55;0.47;;;24.60;46.40;;;;;;5067256;28;20041;-55
2022/11/02 10:50:11;;;;;;;7.40;1.50;;;24.60;46.20;;;;;;5067307;28;20132;-55
2022/11/02 10:52:41;;;;;;;3.72;0.45;;;24.60;45.90;;;;;;5067522;28;20044;-55
2022/11/02 10:55:19;;;;;;;7.80;0.30;;;24.60;45.70;;;;;;5067146;28;20870;-56
2022/11/02 10:57:47;;;;;;;1.25;0.63;;;24.60;45.40;;;;;;5067644;28;20036;-56
2022/11/02 11:00:29;;;;;;;4.43;1.10;;;24.60;45.10;;;;;;5067688;28;20535;-56
2022/11/02 11:03:09;;;;;;;6.90;0.30;;;24.70;45.00;;;;;;5067543;28;20045;-56
2022/11/02 11:05:41;;;;;;;3.75;0.95;;;24.70;45.00;;;;;;5067424;28;20030;-56
2022/11/02 11:08:31;;;;;;;5.57;0.30;;;24.70;45.00;;;;;;5067425;28;20091;-54
2022/11/02 11:11:11;;;;;;;6.95;0.30;;;24.80;45.10;;;;;;5068296;28;20838;-54
2022/11/02 11:13:40;;;;;;;3.25;0.20;;;24.80;45.10;;;;;;5060645;28;20111;-54
2022/11/02 11:16:09;;;;;;;2.55;0.40;;;24.80;45.10;;;;;;5091265;28;20060;-54
2022/11/02 11:18:37;;;;;;;2.10;0.30;;;24.90;45.10;;;;;;5091328;28;20036;-55
2022/11/02 11:21:06;;;;;;;1.90;0.32;;;24.90;45.00;;;;;;5076045;28;20040;-56
2022/11/02 11:23:33;;;;;;;2.95;0.40;;;24.90;45.00;;;;;;5070668;28;20045;-56
2022/11/02 11:26:01;;;;;;;2.28;0.73;;;24.90;44.90;;;;;;5070883;28;20123;-52
2022/11/02 11:28:32;;;;;;;5.28;0.85;;;25.00;45.00;;;;;;5071065;28;20048;-55
2022/11/02 11:31:12;;;;;;;3.97;0.95;;;25.00;44.90;;;;;;5070892;28;20037;-54
2022/11/02 11:33:50;;;;;;;2.05;0.30;;;25.00;44.70;;;;;;5070959;28;20131;-55
2022/11/02 11:36:26;;;;;;;7.20;0.40;;;25.10;44.80;;;;;;5070728;28;20056;-52
2022/11/02 11:38:56;;;;;;;2.58;0.63;;;25.10;44.80;;;;;;5070507;28;20059;-53
2022/11/02 11:41:24;;;;;;;4.05;0.35;;;25.10;44.80;;;;;;5070741;28;20485;-56
2022/11/02 11:43:52;;;;;;;2.10;0.65;;;25.10;44.70;;;;;;5070601;28;20123;-55
2022/11/02 11:46:20;;;;;;;2.63;0.10;;;25.10;44.60;;;;;;5085729;28;20482;-54
2022/11/02 11:48:50;;;;;;;4.20;0.40;;;25.20;44.60;;;;;;5075194;28;20049;-52
2022/11/02 11:51:32;;;;;;;2.20;0.50;;;25.20;44.50;;;;;;5068295;28;20046;-55
2022/11/02 11:54:21;;;;;;;0.85;0.10;;;25.30;44.50;;;;;;5070237;28;20036;-56
2022/11/02 11:56:49;;;;;;;2.47;0.13;;;25.30;44.40;;;;;;5070298;28;20576;-53
2022/11/02 11:59:30;;;;;;;2.15;0.40;;;25.30;44.50;;;;;;5068822;28;20483;-56
2022/11/02 12:02:01;;;;;;;2.15;0.47;;;25.30;44.30;;;;;;5050261;28;20040;-56
2022/11/02 12:04:31;;;;;;;2.97;0.28;;;25.30;44.30;;;;;;5050359;28;20533;-54
2022/11/02 12:07:31;;;;;;;4.03;0.55;;;25.40;44.40;;;;;;5049839;28;20122;-56
2022/11/02 12:10:07;;;;;;;2.35;0.28;;;25.40;44.30;;;;;;5027608;28;20068;-53
2022/11/02 12:12:53;;;;;;;2.78;0.35;;;25.40;44.50;;;;;;5027735;28;20529;-51
2022/11/02 12:15:36;;;;;;;2.15;0.25;;;25.50;44.40;;;;;;5027673;28;20049;-56
2022/11/02 12:18:17;;;;;;;2.80;0.30;;;25.50;44.40;;;;;;5027672;28;20041;-54
2022/11/02 12:21:01;;;;;;;5.25;1.05;;;25.50;44.40;;;;;;5033507;28;20049;-55
2022/11/02 12:23:45;;;;;;;4.22;0.50;;;25.60;44.40;;;;;;5041153;28;20183;-54
2022/11/02 12:26:25;;;;;;;2.63;0.73;;;25.60;44.50;;;;;;5047530;28;20087;-53
2022/11/02 12:29:02;;;;;;;1.80;0.30;;;25.60;44.60;;;;;;5047300;28;20132;-54
2022/11/02 12:31:36;;;;;;;5.00;0.30;;;25.60;44.50;;;;;;5045928;28;20912;-51
2022/11/02 12:34:32;;;;;;;3.38;0.77;;;25.60;44.50;;;;;;5043484;28;20071;-50
2022/11/02 12:37:09;;;;;;;3.22;0.10;;;25.60;44.80;;;;;;5035199;28;20045;-55
2022/11/02 12:39:52;;;;;;;5.15;0.40;;;25.70;44.80;;;;;;5038866;28;20120;-56
2022/11/02 12:42:27;;;;;;;2.85;0.30;;;25.70;44.90;;;;;;5054692;28;20055;-56
2022/11/02 12:45:08;;;;;;;4.32;0.30;;;25.70;44.90;;;;;;5043169;28;20459;-54
2022/11/02 12:47:47;;;;;;;4.18;0.17;;;25.70;44.90;;;;;;5065926;28;20084;-48
2022/11/02 12:50:21;;;;;;;5.43;0.40;;;25.80;45.00;;;;;;5063968;28;20128;-51
2022/11/02 12:53:00;;;;;;;2.72;0.10;;;25.80;44.90;;;;;;5068462;28;20086;-53
2022/11/02 12:55:30;;;;;;;1.65;0.50;;;25.90;44.90;;;;;;5067386;28;20036;-53
2022/11/02 12:58:02;;;;;;;4.15;0.20;;;25.90;44.90;;;;;;5065846;28;20041;-51
2022/11/02 13:00:31;;;;;;;6.93;0.28;;;26.00;44.90;;;;;;5067852;28;20048;-51
2022/11/02 13:03:06;;;;;;;3.95;0.50;;;26.00;44.80;;;;;;5069468;28;20051;-55
2022/11/02 13:05:39;;;;;;;4.05;1.17;;;26.00;44.80;;;;;;5051868;28;20134;-56
2022/11/02 13:08:14;;;;;;;2.08;0.30;;;26.10;44.80;;;;;;5050430;28;20037;-57
2022/11/02 13:10:47;;;;;;;4.57;0.10;;;26.20;44.80;;;;;;5051602;28;20509;-57
2022/11/02 13:13:20;;;;;;;1.65;0.40;;;26.20;44.60;;;;;;5068502;28;20408;-60
2022/11/02 13:15:48;;;;;;;1.60;0.20;;;26.30;44.50;;;;;;5066871;28;20540;-59
2022/11/02 13:18:20;;;;;;;2.10;0.20;;;26.30;44.40;;;;;;5060611;28;20045;-53
2022/11/02 13:20:53;;;;;;;5.57;0.17;;;26.30;44.30;;;;;;5065557;28;20076;-57